createdAt,value
2022-09-13T00:01:57.619Z,92.40
2022-09-13T00:04:26.930Z,93.30
2022-09-13T00:06:57.575Z,93.50
2022-09-13T00:09:26.772Z,91.80
2022-09-13T00:11:55.933Z,90.70
2022-09-13T00:14:26.848Z,90.70
2022-09-13T00:16:56.072Z,90.60
2022-09-13T00:19:25.319Z,90.60
2022-09-13T00:21:54.492Z,90.60
2022-09-13T00:24:25.119Z,90.40
2022-09-13T00:26:54.404Z,90.40
2022-09-13T00:29:23.537Z,90.40
2022-09-13T00:31:52.802Z,90.40
2022-09-13T00:34:21.927Z,90.40
2022-09-13T00:36:51.101Z,90.50
2022-09-13T00:39:20.349Z,90.70
2022-09-13T00:41:51.034Z,90.70
2022-09-13T00:44:51.138Z,90.70
2022-09-13T00:47:24.679Z,90.60
2022-09-13T00:49:57.348Z,90.90
2022-09-13T00:52:31.159Z,90.80
2022-09-13T00:55:04.147Z,90.90
2022-09-13T00:57:36.804Z,91.00
2022-09-13T01:00:13.241Z,91.00
2022-09-13T01:02:45.942Z,91.00
2022-09-13T01:05:18.090Z,91.00
2022-09-13T01:07:47.964Z,91.10
2022-09-13T01:10:17.513Z,91.10
2022-09-13T01:12:54.514Z,91.10
2022-09-13T01:15:24.412Z,91.10
2022-09-13T01:17:55.625Z,91.10
2022-09-13T01:20:34.472Z,91.10
2022-09-13T01:23:31.636Z,91.10
2022-09-13T01:26:32.784Z,91.10
2022-09-13T01:29:51.231Z,91.20
2022-09-13T01:32:30.998Z,91.20
2022-09-13T01:35:11.853Z,91.10
2022-09-13T01:37:52.245Z,91.10
2022-09-13T01:40:38.306Z,91.10
2022-09-13T01:43:29.831Z,91.00
2022-09-13T01:46:07.129Z,91.00
2022-09-13T01:48:49.060Z,91.20
2022-09-13T01:51:27.781Z,91.20
2022-09-13T01:54:09.434Z,91.30
2022-09-13T01:56:44.249Z,91.30
2022-09-13T01:59:20.809Z,91.30
2022-09-13T02:01:56.657Z,91.50
2022-09-13T02:04:31.581Z,91.60
2022-09-13T02:07:05.387Z,91.50
2022-09-13T02:09:38.761Z,91.70
2022-09-13T02:12:13.780Z,91.70
2022-09-13T02:14:46.125Z,91.90
2022-09-13T02:17:18.486Z,91.90
2022-09-13T02:19:54.314Z,92.30
2022-09-13T02:22:28.763Z,92.60
2022-09-13T02:25:01.411Z,92.80
2022-09-13T02:27:34.792Z,93.00
2022-09-13T02:30:08.137Z,93.30
2022-09-13T02:32:42.687Z,93.60
2022-09-13T02:35:18.658Z,93.90
2022-09-13T02:37:53.684Z,92.70
2022-09-13T02:40:27.731Z,99.50
2022-09-13T02:43:02.826Z,99.20
2022-09-13T02:45:35.990Z,92.10
2022-09-13T02:48:11.405Z,91.70
2022-09-13T02:50:50.907Z,91.60
2022-09-13T02:53:28.600Z,91.50
2022-09-13T02:56:05.475Z,91.20
2022-09-13T02:58:40.972Z,91.20
2022-09-13T03:01:10.397Z,91.20
2022-09-13T03:03:39.618Z,91.20
2022-09-13T03:06:10.324Z,91.40
2022-09-13T03:08:39.619Z,91.40
2022-09-13T03:11:25.740Z,91.50
2022-09-13T03:14:19.593Z,91.80
2022-09-13T03:17:07.322Z,91.90
2022-09-13T03:19:49.011Z,92.10
2022-09-13T03:22:32.341Z,92.20
2022-09-13T03:25:10.126Z,92.10
2022-09-13T03:27:49.107Z,92.60
2022-09-13T03:30:20.209Z,92.60
2022-09-13T03:32:56.627Z,92.70
2022-09-13T03:35:33.774Z,92.90
2022-09-13T03:38:08.166Z,92.90
2022-09-13T03:40:41.686Z,92.90
2022-09-13T03:43:15.053Z,93.00
2022-09-13T03:45:48.602Z,92.40
2022-09-13T03:48:18.746Z,92.30
2022-09-13T03:50:48.652Z,92.20
2022-09-13T03:53:24.479Z,92.20
2022-09-13T03:55:54.913Z,92.10
2022-09-13T03:58:26.705Z,92.10
2022-09-13T04:00:55.928Z,92.20
2022-09-13T04:03:25.093Z,92.20
2022-09-13T04:05:54.488Z,92.50
2022-09-13T04:08:25.080Z,92.40
2022-09-13T04:10:54.995Z,92.50
2022-09-13T04:13:24.200Z,92.80
2022-09-13T04:15:53.392Z,92.50
2022-09-13T04:18:22.733Z,92.80
2022-09-13T04:20:59.295Z,92.80
2022-09-13T04:23:31.460Z,92.80
2022-09-13T04:26:04.012Z,93.10
2022-09-13T04:28:33.428Z,93.40
2022-09-13T04:31:02.678Z,93.60
2022-09-13T04:33:32.065Z,94.00
2022-09-13T04:36:01.685Z,93.80
2022-09-13T04:38:32.295Z,93.90
2022-09-13T04:41:01.625Z,94.40
2022-09-13T04:43:30.881Z,95.00
2022-09-13T04:46:02.448Z,95.30
2022-09-13T04:48:31.643Z,95.20
2022-09-13T04:51:04.873Z,95.70
2022-09-13T04:53:36.070Z,99.20
2022-09-13T04:56:06.566Z,93.70
2022-09-13T04:58:35.673Z,94.80
2022-09-13T05:01:05.089Z,94.70
2022-09-13T05:03:35.009Z,95.50
2022-09-13T05:06:05.748Z,95.60
2022-09-13T05:08:36.590Z,95.60
2022-09-13T05:11:06.542Z,97.00
2022-09-13T05:13:36.057Z,98.50
2022-09-13T05:16:07.471Z,95.50
2022-09-13T05:18:41.977Z,96.70
2022-09-13T05:21:13.851Z,98.20
2022-09-13T05:23:44.380Z,95.40
2022-09-13T05:26:13.548Z,95.80
2022-09-13T05:28:42.773Z,95.70
2022-09-13T05:31:16.359Z,96.50
2022-09-13T05:33:47.302Z,96.70
2022-09-13T05:36:16.499Z,96.60
2022-09-13T05:38:47.091Z,96.50
2022-09-13T05:41:16.292Z,96.60
2022-09-13T05:43:45.545Z,96.60
2022-09-13T05:46:17.207Z,96.60
2022-09-13T05:48:46.643Z,96.40
2022-09-13T05:51:17.683Z,96.30
2022-09-13T05:53:49.454Z,96.10
2022-09-13T05:56:20.530Z,96.00
2022-09-13T05:58:50.964Z,96.00
2022-09-13T06:01:22.083Z,95.90
2022-09-13T06:03:51.906Z,95.90
2022-09-13T06:06:22.108Z,95.80
2022-09-13T06:08:55.501Z,95.80
2022-09-13T06:11:26.241Z,95.70
2022-09-13T06:13:55.717Z,95.70
2022-09-13T06:16:24.891Z,95.70
2022-09-13T06:18:54.344Z,95.70
2022-09-13T06:21:28.780Z,95.60
2022-09-13T06:23:59.916Z,95.50
2022-09-13T06:26:29.950Z,95.40
2022-09-13T06:28:59.909Z,95.50
2022-09-13T06:31:30.448Z,95.30
2022-09-13T06:34:02.607Z,95.40
2022-09-13T06:36:31.808Z,95.20
2022-09-13T06:39:02.315Z,95.20
2022-09-13T06:41:31.867Z,95.20
2022-09-13T06:44:02.174Z,95.20
2022-09-13T06:46:33.962Z,95.10
2022-09-13T06:49:05.122Z,95.00
2022-09-13T06:51:35.543Z,95.10
2022-09-13T06:54:06.222Z,94.90
2022-09-13T06:56:37.259Z,94.90
2022-09-13T06:59:08.815Z,94.90
2022-09-13T07:01:40.268Z,94.80
2022-09-13T07:04:11.260Z,94.80
2022-09-13T07:06:41.934Z,94.90
2022-09-13T07:09:14.649Z,94.80
2022-09-13T07:11:44.289Z,94.80
2022-09-13T07:14:15.779Z,94.70
2022-09-13T07:16:46.304Z,94.60
2022-09-13T07:19:17.030Z,94.60
2022-09-13T07:21:46.563Z,94.60
2022-09-13T07:24:17.588Z,94.60
2022-09-13T07:26:47.355Z,94.70
2022-09-13T07:29:19.306Z,94.60
2022-09-13T07:31:50.563Z,94.60
2022-09-13T07:34:21.703Z,94.30
2022-09-13T07:36:51.310Z,94.20
2022-09-13T07:39:23.224Z,94.20
2022-09-13T07:41:53.964Z,94.20
2022-09-13T07:44:23.278Z,94.10
2022-09-13T07:46:52.481Z,94.20
2022-09-13T07:49:21.709Z,94.20
2022-09-13T07:51:53.116Z,94.50
2022-09-13T07:54:23.759Z,94.50
2022-09-13T07:56:52.900Z,94.40
2022-09-13T07:59:23.430Z,94.30
2022-09-13T08:01:54.221Z,94.20
2022-09-13T08:04:26.971Z,94.20
2022-09-13T08:06:56.373Z,94.20
2022-09-13T08:09:27.104Z,94.10
2022-09-13T08:11:57.095Z,94.10
2022-09-13T08:14:26.430Z,94.10
2022-09-13T08:16:57.161Z,94.00
2022-09-13T08:19:26.518Z,94.10
2022-09-13T08:21:55.657Z,94.00
2022-09-13T08:24:26.812Z,94.10
2022-09-13T08:26:56.769Z,94.00
2022-09-13T08:29:26.518Z,94.00
2022-09-13T08:31:55.693Z,94.00
2022-09-13T08:34:24.890Z,94.00
2022-09-13T08:36:54.015Z,93.90
2022-09-13T08:39:23.435Z,94.00
2022-09-13T08:42:13.037Z,93.90
2022-09-13T08:44:47.452Z,94.00
2022-09-13T08:47:30.033Z,93.80
2022-09-13T08:50:08.037Z,93.90
2022-09-13T08:52:45.897Z,93.80
2022-09-13T08:55:27.368Z,93.80
2022-09-13T08:58:07.399Z,93.60
2022-09-13T09:00:43.054Z,93.60
2022-09-13T09:03:23.391Z,93.60
2022-09-13T09:05:54.628Z,93.50
2022-09-13T09:08:34.088Z,93.50
2022-09-13T09:11:06.631Z,93.50
2022-09-13T09:13:51.247Z,93.50
2022-09-13T09:16:31.939Z,93.50
2022-09-13T09:19:08.617Z,93.60
2022-09-13T09:21:38.953Z,93.60
2022-09-13T09:24:10.972Z,93.50
2022-09-13T09:26:40.096Z,93.60
2022-09-13T09:29:22.951Z,93.50
2022-09-13T09:32:09.864Z,93.60
2022-09-13T09:34:51.207Z,93.60
2022-09-13T09:37:22.985Z,93.50
2022-09-13T09:39:54.507Z,93.50
2022-09-13T09:42:26.407Z,93.20
2022-09-13T09:45:00.781Z,92.80
2022-09-13T09:47:35.465Z,92.70
2022-09-13T09:50:12.064Z,92.70
2022-09-13T09:52:45.052Z,92.70
2022-09-13T09:55:25.815Z,92.80
2022-09-13T09:57:57.958Z,92.80
2022-09-13T10:00:31.476Z,92.70
2022-09-13T10:03:03.502Z,92.80
2022-09-13T10:05:33.751Z,92.80
2022-09-13T10:08:05.825Z,92.80
2022-09-13T10:10:39.839Z,92.70
2022-09-13T10:13:17.504Z,92.70
2022-09-13T10:15:59.515Z,92.70
2022-09-13T10:18:45.630Z,92.70
2022-09-13T10:21:26.064Z,92.60
2022-09-13T10:24:19.336Z,92.70
2022-09-13T10:26:48.920Z,92.70
2022-09-13T10:29:19.676Z,92.70
2022-09-13T10:31:53.865Z,92.90
2022-09-13T10:34:26.887Z,92.90
2022-09-13T10:36:59.549Z,92.90
2022-09-13T10:39:31.294Z,92.90
2022-09-13T10:42:04.369Z,92.90
2022-09-13T10:44:40.584Z,93.00
2022-09-13T10:47:20.091Z,93.00
2022-09-13T10:49:52.988Z,93.10
2022-09-13T10:52:34.202Z,93.20
2022-09-13T10:55:29.833Z,93.30
2022-09-13T10:58:15.978Z,93.70
2022-09-13T11:01:09.856Z,93.60
2022-09-13T11:04:04.843Z,93.40
2022-09-13T11:06:41.349Z,93.50
2022-09-13T11:09:16.203Z,93.50
2022-09-13T11:11:53.790Z,93.40
2022-09-13T11:14:53.072Z,93.40
2022-09-13T11:17:33.256Z,93.60
2022-09-13T11:20:19.568Z,93.40
2022-09-13T11:23:24.566Z,93.60
2022-09-13T11:26:05.304Z,93.60
2022-09-13T11:28:45.174Z,93.40
2022-09-13T11:31:30.969Z,93.40
2022-09-13T11:34:18.364Z,93.50
2022-09-13T11:37:03.199Z,93.50
2022-09-13T11:39:36.556Z,93.50
2022-09-13T11:42:23.644Z,93.40
2022-09-13T11:45:21.278Z,93.60
2022-09-13T11:48:12.691Z,93.40
2022-09-13T11:50:51.546Z,93.50
2022-09-13T11:53:45.478Z,93.50
2022-09-13T11:56:20.212Z,93.50
2022-09-13T11:58:54.376Z,93.40
2022-09-13T12:01:29.275Z,93.40
2022-09-13T12:04:02.644Z,93.40
2022-09-13T12:06:36.828Z,93.40
2022-09-13T12:09:13.988Z,93.40
2022-09-13T12:11:47.519Z,93.40
2022-09-13T12:14:21.322Z,93.40
2022-09-13T12:16:54.127Z,93.40
2022-09-13T12:19:27.290Z,93.40
2022-09-13T12:21:59.402Z,93.50
2022-09-13T12:24:37.237Z,93.40
2022-09-13T12:27:10.791Z,93.50
2022-09-13T12:29:46.088Z,93.30
2022-09-13T12:32:15.918Z,93.30
2022-09-13T12:34:50.033Z,93.40
2022-09-13T12:37:46.533Z,93.40
2022-09-13T12:40:39.820Z,93.40
2022-09-13T12:43:29.691Z,93.40
2022-09-13T12:46:31.627Z,93.60
2022-09-13T12:49:17.267Z,93.70
2022-09-13T12:52:05.631Z,93.70
2022-09-13T12:55:35.558Z,93.70
2022-09-13T12:58:31.274Z,93.60
2022-09-13T13:01:20.931Z,93.60
2022-09-13T13:03:54.804Z,93.70
2022-09-13T13:06:34.996Z,93.60
2022-09-13T13:09:07.557Z,93.70
2022-09-13T13:11:48.969Z,93.50
2022-09-13T13:14:53.316Z,93.60
2022-09-13T13:17:46.935Z,93.80
2022-09-13T13:20:42.120Z,93.80
2022-09-13T13:23:27.351Z,93.70
2022-09-13T13:26:08.951Z,93.50
2022-09-13T13:29:14.355Z,93.60
2022-09-13T13:31:47.431Z,93.90
2022-09-13T13:34:33.040Z,93.50
2022-09-13T13:37:04.836Z,93.50
2022-09-13T13:39:36.938Z,93.30
2022-09-13T13:42:31.762Z,93.30
2022-09-13T13:45:19.469Z,93.20
2022-09-13T13:48:21.291Z,93.20
2022-09-13T13:51:18.309Z,93.30
2022-09-13T13:53:57.367Z,93.20
2022-09-13T13:56:48.100Z,93.10
2022-09-13T13:59:23.792Z,93.30
2022-09-13T14:01:59.499Z,93.20
2022-09-13T14:05:01.268Z,93.20
2022-09-13T14:08:02.837Z,93.40
2022-09-13T14:10:43.304Z,93.30
2022-09-13T14:13:31.769Z,93.20
2022-09-13T14:16:10.560Z,93.20
2022-09-13T14:19:03.481Z,93.30
2022-09-13T14:21:32.774Z,93.40
2022-09-13T14:24:19.660Z,93.00
2022-09-13T14:26:50.858Z,93.10
2022-09-13T14:29:21.624Z,92.90
2022-09-13T14:31:52.463Z,92.80
2022-09-13T14:34:23.852Z,92.80
2022-09-13T14:36:55.889Z,92.80
2022-09-13T14:39:27.910Z,92.70
2022-09-13T14:42:01.477Z,92.80
2022-09-13T14:44:31.450Z,92.70
2022-09-13T14:47:07.722Z,92.70
2022-09-13T14:49:41.457Z,92.70
2022-09-13T14:52:16.760Z,92.60
2022-09-13T14:54:53.026Z,92.60
2022-09-13T14:57:28.863Z,92.60
2022-09-13T15:00:01.979Z,92.50
2022-09-13T15:02:34.166Z,92.50
2022-09-13T15:05:09.218Z,92.50
2022-09-13T15:07:40.051Z,92.50
2022-09-13T15:10:22.841Z,92.50
2022-09-13T15:12:55.131Z,92.90
2022-09-13T15:15:42.871Z,92.50
2022-09-13T15:18:26.542Z,92.70
2022-09-13T15:20:58.296Z,92.70
2022-09-13T15:23:29.811Z,92.40
2022-09-13T15:26:05.759Z,92.40
2022-09-13T15:28:38.793Z,92.50
2022-09-13T15:31:08.182Z,92.60
2022-09-13T15:33:37.699Z,92.60
2022-09-13T15:36:28.048Z,92.50
2022-09-13T15:39:03.103Z,92.50
2022-09-13T15:41:36.706Z,92.40
2022-09-13T15:44:07.574Z,92.40
2022-09-13T15:46:44.873Z,92.60
2022-09-13T15:49:18.307Z,92.70
2022-09-13T15:51:47.942Z,92.70
2022-09-13T15:54:19.333Z,92.70
2022-09-13T15:56:51.660Z,92.70
2022-09-13T15:59:22.987Z,92.80
2022-09-13T16:01:53.835Z,92.80
2022-09-13T16:04:23.081Z,92.90
2022-09-13T16:06:52.602Z,92.90
2022-09-13T16:09:23.561Z,92.90
2022-09-13T16:11:54.196Z,92.90
2022-09-13T16:14:23.772Z,93.00
2022-09-13T16:16:53.332Z,92.90
2022-09-13T16:19:25.422Z,93.00
2022-09-13T16:21:54.630Z,92.90
2022-09-13T16:24:23.835Z,93.30
2022-09-13T16:26:54.647Z,93.30
2022-09-13T16:29:24.031Z,93.10
2022-09-13T16:31:53.258Z,93.10
2022-09-13T16:34:22.939Z,93.10
2022-09-13T16:36:52.168Z,93.10
2022-09-13T16:39:21.480Z,93.10
2022-09-13T16:41:50.874Z,93.00
2022-09-13T16:44:21.489Z,93.10
2022-09-13T16:46:50.932Z,93.10
2022-09-13T16:49:20.208Z,93.10
2022-09-13T16:51:49.594Z,93.10
2022-09-13T16:54:18.829Z,93.50
2022-09-13T16:56:48.409Z,93.20
2022-09-13T16:59:17.656Z,93.20
2022-09-13T17:01:48.429Z,93.30
2022-09-13T17:04:18.473Z,93.30
2022-09-13T17:06:47.584Z,93.30
2022-09-13T17:09:17.012Z,93.40
2022-09-13T17:11:47.150Z,93.30
2022-09-13T17:14:17.978Z,93.30
2022-09-13T17:16:50.315Z,93.40
2022-09-13T17:19:22.046Z,93.40
2022-09-13T17:21:52.477Z,93.40
2022-09-13T17:24:24.749Z,93.40
2022-09-13T17:26:54.137Z,93.40
2022-09-13T17:29:25.506Z,93.40
2022-09-13T17:31:56.238Z,93.40
2022-09-13T17:34:25.531Z,93.40
2022-09-13T17:36:54.842Z,93.40
2022-09-13T17:39:24.119Z,93.40
2022-09-13T17:41:53.516Z,93.40
2022-09-13T17:44:22.695Z,93.60
2022-09-13T17:46:52.338Z,93.70
2022-09-13T17:49:23.506Z,93.70
2022-09-13T17:51:54.702Z,93.70
2022-09-13T17:54:24.494Z,93.60
2022-09-13T17:56:54.113Z,93.60
2022-09-13T17:59:24.129Z,93.60
2022-09-13T18:01:56.770Z,93.60
2022-09-13T18:04:27.589Z,93.70
2022-09-13T18:06:57.172Z,93.60
2022-09-13T18:09:26.536Z,93.70
2022-09-13T18:11:55.776Z,93.70
2022-09-13T18:14:26.682Z,93.80
2022-09-13T18:16:57.607Z,93.70
2022-09-13T18:19:44.724Z,93.90
2022-09-13T18:22:15.012Z,94.00
2022-09-13T18:24:44.095Z,94.10
2022-09-13T18:27:13.243Z,94.10
2022-09-13T18:29:42.744Z,94.10
2022-09-13T18:32:12.229Z,94.70
2022-09-13T18:34:44.373Z,94.60
2022-09-13T18:37:13.663Z,94.90
2022-09-13T18:39:42.808Z,95.30
2022-09-13T18:42:11.960Z,95.40
2022-09-13T18:44:41.043Z,95.70
2022-09-13T18:47:13.241Z,96.00
2022-09-13T18:49:43.764Z,96.60
2022-09-13T18:52:13.145Z,96.60
2022-09-13T18:54:42.303Z,97.00
2022-09-13T18:57:11.444Z,97.00
2022-09-13T18:59:40.537Z,97.10
2022-09-13T19:02:11.190Z,97.20
2022-09-13T19:04:40.376Z,97.40
2022-09-13T19:07:13.471Z,97.40
2022-09-13T19:09:42.719Z,97.40
2022-09-13T19:12:11.928Z,97.10
2022-09-13T19:14:43.201Z,97.10
2022-09-13T19:17:12.432Z,97.10
2022-09-13T19:19:41.515Z,97.30
2022-09-13T19:22:12.166Z,97.50
2022-09-13T19:24:41.348Z,97.70
2022-09-13T19:27:10.516Z,98.00
2022-09-13T19:29:39.662Z,98.00
2022-09-13T19:32:08.850Z,98.00
2022-09-13T19:34:38.386Z,98.20
2022-09-13T19:37:08.079Z,98.20
2022-09-13T19:39:39.079Z,98.20
2022-09-13T19:42:08.971Z,98.20
2022-09-13T19:44:39.196Z,98.20
2022-09-13T19:48:02.056Z,98.40
2022-09-13T19:50:03.374Z,98.60
2022-09-13T19:52:33.092Z,98.90
2022-09-13T19:55:04.142Z,99.00
2022-09-13T19:57:34.001Z,99.20
2022-09-13T20:00:04.502Z,99.30
2022-09-13T20:02:37.395Z,99.50
2022-09-13T20:05:08.250Z,99.40
2022-09-13T20:07:37.724Z,99.50
2022-09-13T20:10:09.015Z,99.30
2022-09-13T20:12:40.738Z,99.40
2022-09-13T20:15:11.714Z,99.50
2022-09-13T20:17:41.299Z,99.50
2022-09-13T20:20:10.831Z,99.80
2022-09-13T20:22:41.663Z,99.80
2022-09-13T20:25:12.989Z,99.90
2022-09-13T20:27:42.287Z,99.90
2022-09-13T20:30:12.531Z,99.90
2022-09-13T20:32:41.729Z,99.90
2022-09-13T20:35:12.182Z,99.90
2022-09-13T20:37:41.505Z,99.70
2022-09-13T20:40:13.699Z,99.90
2022-09-13T20:42:43.055Z,99.30
2022-09-13T20:45:12.985Z,99.20
2022-09-13T20:47:42.181Z,99.10
2022-09-13T20:50:12.413Z,99.20
2022-09-13T20:52:41.866Z,99.10
2022-09-13T20:55:12.501Z,99.00
2022-09-13T20:57:41.822Z,98.80
2022-09-13T21:00:12.847Z,98.80
2022-09-13T21:02:42.084Z,98.60
2022-09-13T21:05:11.525Z,98.50
2022-09-13T21:07:57.993Z,98.40
2022-09-13T21:10:29.148Z,98.40
2022-09-13T21:13:00.512Z,98.30
2022-09-13T21:15:29.790Z,98.30
2022-09-13T21:17:59.247Z,98.10
2022-09-13T21:20:28.407Z,98.10
2022-09-13T21:22:57.501Z,98.10
2022-09-13T21:25:28.039Z,98.40
2022-09-13T21:27:57.308Z,98.00
2022-09-13T21:30:26.494Z,98.00
2022-09-13T21:32:55.673Z,97.90
2022-09-13T21:35:24.856Z,97.80
2022-09-13T21:37:54.564Z,97.90
2022-09-13T21:40:23.999Z,97.80
2022-09-13T21:42:54.518Z,97.80
2022-09-13T21:45:24.073Z,97.70
2022-09-13T21:47:53.156Z,97.70
2022-09-13T21:50:22.361Z,97.70
2022-09-13T21:52:51.503Z,97.70
2022-09-13T21:55:20.853Z,97.60
2022-09-13T21:57:50.000Z,97.60
2022-09-13T22:00:20.776Z,97.60
2022-09-13T22:02:50.000Z,97.60
2022-09-13T22:05:19.176Z,97.60
2022-09-13T22:07:48.324Z,97.60
2022-09-13T22:10:17.615Z,97.50
2022-09-13T22:12:46.712Z,97.50
2022-09-13T22:15:18.240Z,97.60
2022-09-13T22:17:48.854Z,97.40
2022-09-13T22:20:18.072Z,97.40
2022-09-13T22:22:47.167Z,97.40
2022-09-13T22:25:16.386Z,97.40
2022-09-13T22:27:45.455Z,97.40
2022-09-13T22:30:15.362Z,97.40
2022-09-13T22:32:44.487Z,97.40
2022-09-13T22:35:15.111Z,97.40
2022-09-13T22:37:44.449Z,97.40
2022-09-13T22:40:13.682Z,97.70
2022-09-13T22:42:42.905Z,97.30
2022-09-13T22:45:12.240Z,97.30
2022-09-13T22:47:41.333Z,97.30
2022-09-13T22:50:11.153Z,97.20
2022-09-13T22:52:41.717Z,97.30
2022-09-13T22:55:11.065Z,97.30
2022-09-13T22:57:40.155Z,97.20
2022-09-13T23:00:11.654Z,97.20
2022-09-13T23:02:45.201Z,97.10
2022-09-13T23:05:17.066Z,97.10
2022-09-13T23:07:47.864Z,97.10
2022-09-13T23:10:17.143Z,97.00
2022-09-13T23:12:46.503Z,97.00
2022-09-13T23:15:15.762Z,97.10
2022-09-13T23:17:44.867Z,97.00
2022-09-13T23:20:14.349Z,97.00
2022-09-13T23:22:43.446Z,97.00
2022-09-13T23:25:14.390Z,97.10
2022-09-13T23:27:43.518Z,97.00
2022-09-13T23:30:13.510Z,97.00
2022-09-13T23:32:42.747Z,97.00
2022-09-13T23:35:11.826Z,97.00
2022-09-13T23:37:41.013Z,97.00
2022-09-13T23:40:10.914Z,97.00
2022-09-13T23:42:41.411Z,97.00
2022-09-13T23:45:12.251Z,97.00
2022-09-13T23:47:41.545Z,97.00
2022-09-13T23:50:11.951Z,97.00
2022-09-13T23:52:41.044Z,97.00
2022-09-13T23:55:12.812Z,96.90
2022-09-13T23:57:43.384Z,96.90
